GLD1974 TFFA-TFFC
Flight info
| Callsign | GLD1974 |
|---|---|
| Flight time | N/A |
| Altitude | 4000 |
| Route | PPR/N0112F050 |
| Aircraft | C172/L-SFG/C |
Departure
| Time | N/A |
|---|---|
| Airport | La Désirade Airport (TFFA) |
Arrival
| Time | 2026-05-05 18:07 |
|---|---|
| Airport | St-François Airport (TFFC) |
| Time | Latitude | Longitude | Altitude | Speed | Heading |
|---|---|---|---|---|---|
| 2026-05-05 18:07 | 16.29687 | -61.08666 | 16 ft | 0 kts | 61° |
| 2026-05-05 18:12 | 16.29683 | -61.08674 | 16 ft | 2 kts | 71° |
| 2026-05-05 18:12 | 16.29688 | -61.08683 | 16 ft | 0 kts | 157° |
| 2026-05-05 18:18 | 16.29680 | -61.08679 | 16 ft | 4 kts | 166° |
| 2026-05-05 18:19 | 16.29659 | -61.08679 | 16 ft | 3 kts | 164° |
| 2026-05-05 18:19 | 16.29629 | -61.08656 | 16 ft | 6 kts | 77° |
| 2026-05-05 18:19 | 16.29672 | -61.08533 | 14 ft | 38 kts | 71° |
| 2026-05-05 18:19 | 16.29807 | -61.08183 | 63 ft | 58 kts | 73° |
| 2026-05-05 18:20 | 16.29942 | -61.07759 | 157 ft | 67 kts | 81° |
| 2026-05-05 18:20 | 16.29870 | -61.07280 | 209 ft | 79 kts | 138° |
| 2026-05-05 18:20 | 16.29278 | -61.07312 | 269 ft | 99 kts | 208° |
| 2026-05-05 18:20 | 16.28841 | -61.07898 | 340 ft | 110 kts | 240° |
| 2026-05-05 18:21 | 16.28607 | -61.08675 | 407 ft | 113 kts | 252° |
| 2026-05-05 18:21 | 16.28452 | -61.09516 | 436 ft | 125 kts | 253° |
| 2026-05-05 18:21 | 16.28286 | -61.10414 | 434 ft | 126 kts | 255° |
| 2026-05-05 18:21 | 16.28068 | -61.11308 | 438 ft | 126 kts | 251° |
| 2026-05-05 18:22 | 16.27878 | -61.12221 | 432 ft | 132 kts | 253° |
| 2026-05-05 18:22 | 16.27673 | -61.13161 | 436 ft | 134 kts | 252° |
| 2026-05-05 18:22 | 16.27459 | -61.14116 | 433 ft | 139 kts | 254° |
| 2026-05-05 18:22 | 16.27226 | -61.15110 | 421 ft | 138 kts | 253° |
| 2026-05-05 18:23 | 16.27009 | -61.16029 | 412 ft | 130 kts | 255° |
| 2026-05-05 18:23 | 16.26738 | -61.16964 | 419 ft | 138 kts | 250° |
| 2026-05-05 18:23 | 16.26404 | -61.17883 | 414 ft | 135 kts | 241° |
| 2026-05-05 18:23 | 16.26027 | -61.18782 | 415 ft | 135 kts | 240° |
| 2026-05-05 18:24 | 16.25638 | -61.19658 | 422 ft | 127 kts | 240° |
| 2026-05-05 18:24 | 16.25306 | -61.20374 | 413 ft | 98 kts | 236° |
| 2026-05-05 18:24 | 16.25051 | -61.21020 | 414 ft | 96 kts | 241° |
| 2026-05-05 18:24 | 16.24898 | -61.21636 | 414 ft | 84 kts | 246° |
| 2026-05-05 18:25 | 16.24830 | -61.22237 | 423 ft | 82 kts | 257° |
| 2026-05-05 18:25 | 16.24793 | -61.22627 | 424 ft | 80 kts | 252° |
| 2026-05-05 18:25 | 16.24735 | -61.23446 | 436 ft | 92 kts | 258° |
| 2026-05-05 18:25 | 16.24656 | -61.24093 | 425 ft | 86 kts | 269° |
| 2026-05-05 18:26 | 16.24746 | -61.24746 | 429 ft | 94 kts | 284° |
| 2026-05-05 18:26 | 16.24969 | -61.25362 | 411 ft | 90 kts | 294° |
| 2026-05-05 18:26 | 16.25237 | -61.25941 | 414 ft | 87 kts | 298° |
| 2026-05-05 18:26 | 16.25428 | -61.26507 | 347 ft | 83 kts | 275° |
| 2026-05-05 18:27 | 16.25487 | -61.27092 | 342 ft | 81 kts | 262° |
| 2026-05-05 18:27 | 16.25485 | -61.27691 | 356 ft | 86 kts | 274° |
| 2026-05-05 18:27 | 16.25858 | -61.28043 | 295 ft | 70 kts | 29° |
| 2026-05-05 18:27 | 16.25985 | -61.27663 | 247 ft | 61 kts | 96° |
| 2026-05-05 18:28 | 16.25877 | -61.26834 | 83 ft | 60 kts | 101° |
| 2026-05-05 18:28 | 16.25808 | -61.26401 | 17 ft | 56 kts | 101° |
| 2026-05-05 18:28 | 16.25765 | -61.26162 | 15 ft | 13 kts | 111° |
| 2026-05-05 18:29 | 16.25760 | -61.26131 | 16 ft | 1 kts | 25° |
| 2026-05-05 18:29 | 16.25768 | -61.26137 | 16 ft | 6 kts | 265° |
| 2026-05-05 18:29 | 16.25775 | -61.26214 | 15 ft | 17 kts | 283° |
| 2026-05-05 18:29 | 16.25788 | -61.26325 | 13 ft | 8 kts | 248° |
| 2026-05-05 18:30 | 16.25746 | -61.26341 | 15 ft | 5 kts | 191° |
| 2026-05-05 18:30 | 16.25720 | -61.26359 | 15 ft | 5 kts | 247° |
| 2026-05-05 18:30 | 16.25701 | -61.26387 | 16 ft | 4 kts | 271° |
| 2026-05-05 18:30 | 16.25702 | -61.26391 | 16 ft | 0 kts | 302° |